Terminal Aerodrome Forecast
Issued by NWS

Home | Current Version | Previous Version | Graphics & Text | Print | Product List | Glossary On
Versions: 1 2 3 4 5 6 7 8 9 10 11 12 13 14 15 16 17 18 19 20 21 22 23 24 25
577
FTUS43 KTOP 150520
TAFFOE
TAF
KFOE 150520Z 1506/1606 16005KT P6SM SCT250
      TEMPO 1511/1513 4SM BR
     FM151400 16009KT P6SM SCT060=

USA.gov is the U.S. government's official web portal to all federal, state and local government web resources and services.